createdAt,value
2023-02-27T00:01:09.335Z,96585.53
2023-02-27T00:03:37.315Z,96587.31
2023-02-27T00:06:05.855Z,96588.94
2023-02-27T00:08:33.800Z,96593.97
2023-02-27T00:11:04.301Z,96594.81
2023-02-27T00:13:32.230Z,96608.25
2023-02-27T00:16:00.217Z,96605.03
2023-02-27T00:18:28.158Z,96619.06
2023-02-27T00:20:56.133Z,96619.84
2023-02-27T00:23:24.120Z,96611.53
2023-02-27T00:25:54.848Z,96608.06
2023-02-27T00:28:24.597Z,96618.28
2023-02-27T00:30:52.530Z,96611.25
2023-02-27T00:33:20.546Z,96614.94
2023-02-27T00:35:56.322Z,96609.03
2023-02-27T00:38:24.321Z,96614.97
2023-02-27T00:40:52.276Z,96619.94
2023-02-27T00:43:20.212Z,96622.50
2023-02-27T00:45:50.247Z,96625.84
2023-02-27T00:48:18.177Z,96624.94
2023-02-27T00:50:46.072Z,96628.31
2023-02-27T00:53:13.999Z,96628.31
2023-02-27T00:55:41.903Z,96630.00
2023-02-27T00:58:09.880Z,96632.50
2023-02-27T01:00:37.903Z,96633.47
2023-02-27T01:03:07.275Z,96635.91
2023-02-27T01:05:35.203Z,96640.97
2023-02-27T01:08:03.184Z,96631.81
2023-02-27T01:10:31.177Z,96630.94
2023-02-27T01:12:59.095Z,96631.81
2023-02-27T01:15:27.034Z,96639.28
2023-02-27T01:17:54.938Z,96640.91
2023-02-27T01:20:24.235Z,96645.94
2023-02-27T01:22:52.214Z,96645.13
2023-02-27T01:25:20.305Z,96640.00
2023-02-27T01:27:48.293Z,96642.22
2023-02-27T01:30:16.869Z,96643.88
2023-02-27T01:32:44.820Z,96646.63
2023-02-27T01:35:13.118Z,96643.25
2023-02-27T01:37:42.497Z,96639.19
2023-02-27T01:40:12.709Z,96648.47
2023-02-27T01:42:40.678Z,96645.09
2023-02-27T01:45:26.352Z,96635.88
2023-02-27T01:47:58.274Z,96643.38
2023-02-27T01:50:26.515Z,96636.91
2023-02-27T01:52:58.522Z,96630.22
2023-02-27T01:55:28.439Z,96638.59
2023-02-27T01:57:56.651Z,96639.41
2023-02-27T02:00:24.928Z,96631.09
2023-02-27T02:02:57.685Z,96633.56
2023-02-27T02:05:25.626Z,96643.53
2023-02-27T02:07:55.344Z,96639.41
2023-02-27T02:10:23.817Z,96646.91
2023-02-27T02:12:51.754Z,96634.88
2023-02-27T02:15:20.604Z,96646.47
2023-02-27T02:17:57.017Z,96640.69
2023-02-27T02:20:56.581Z,96646.00
2023-02-27T02:23:46.436Z,96642.63
2023-02-27T02:26:29.224Z,96640.88
2023-02-27T02:29:29.540Z,96635.25
2023-02-27T02:32:50.963Z,96643.59
2023-02-27T02:35:57.118Z,96647.06
2023-02-27T02:38:52.888Z,96649.53
2023-02-27T02:41:25.430Z,96644.56
2023-02-27T02:44:01.970Z,96636.41
2023-02-27T02:46:33.558Z,96640.66
2023-02-27T02:49:06.550Z,96647.41
2023-02-27T02:51:37.998Z,96645.81
2023-02-27T02:54:12.558Z,96646.66
2023-02-27T02:56:42.789Z,96655.03
2023-02-27T02:59:15.111Z,96663.25
2023-02-27T03:01:44.981Z,96659.19
2023-02-27T03:04:16.707Z,96662.47
2023-02-27T03:06:47.817Z,96665.13
2023-02-27T03:09:20.425Z,96663.47
2023-02-27T03:11:50.449Z,96671.00
2023-02-27T03:14:22.187Z,96666.88
2023-02-27T03:16:53.271Z,96658.59
2023-02-27T03:19:24.385Z,96674.44
2023-02-27T03:21:55.956Z,96664.47
2023-02-27T03:24:29.673Z,96669.41
2023-02-27T03:27:02.742Z,96680.19
2023-02-27T03:29:35.080Z,96661.38
2023-02-27T03:32:06.796Z,96682.13
2023-02-27T03:34:36.313Z,96681.25
2023-02-27T03:37:08.005Z,96680.44
2023-02-27T03:39:43.732Z,96674.50
2023-02-27T03:42:16.662Z,96675.31
2023-02-27T03:44:53.560Z,96677.03
2023-02-27T03:47:21.741Z,96686.13
2023-02-27T03:49:51.395Z,96685.34
2023-02-27T03:52:20.027Z,96688.66
2023-02-27T03:54:52.942Z,96690.44
2023-02-27T03:57:21.095Z,96702.22
2023-02-27T03:59:49.036Z,96707.84
2023-02-27T04:02:17.326Z,96701.31
2023-02-27T04:04:45.255Z,96708.06
2023-02-27T04:07:24.276Z,96709.75
2023-02-27T04:10:20.312Z,96714.75
2023-02-27T04:13:14.671Z,96715.63
2023-02-27T04:15:54.945Z,96712.38
2023-02-27T04:18:31.632Z,96708.16
2023-02-27T04:21:02.256Z,96718.25
2023-02-27T04:23:35.983Z,96713.38
2023-02-27T04:26:18.836Z,96709.97
2023-02-27T04:28:51.822Z,96715.75
2023-02-27T04:31:22.700Z,96709.06
2023-02-27T04:33:53.283Z,96709.19
2023-02-27T04:36:26.128Z,96709.19
2023-02-27T04:38:58.672Z,96718.41
2023-02-27T04:41:30.390Z,96714.22
2023-02-27T04:43:58.872Z,96710.00
2023-02-27T04:46:28.667Z,96720.97
2023-02-27T04:49:00.750Z,96723.53
2023-02-27T04:51:32.898Z,96722.78
2023-02-27T04:54:03.034Z,96719.47
2023-02-27T04:56:35.509Z,96713.75
2023-02-27T04:59:05.234Z,96719.59
2023-02-27T05:01:36.714Z,96712.88
2023-02-27T05:04:05.358Z,96726.97
2023-02-27T05:06:36.522Z,96712.88
2023-02-27T05:09:11.104Z,96716.94
2023-02-27T05:11:44.732Z,96720.41
2023-02-27T05:14:15.456Z,96729.59
2023-02-27T05:16:46.637Z,96730.41
2023-02-27T05:19:14.895Z,96731.28
2023-02-27T05:21:46.969Z,96723.69
2023-02-27T05:24:22.980Z,96734.63
2023-02-27T05:27:17.888Z,96738.75
2023-02-27T05:29:49.702Z,96743.78
2023-02-27T05:32:28.895Z,96740.56
2023-02-27T05:35:01.211Z,96715.53
2023-02-27T05:37:32.476Z,96739.72
2023-02-27T05:40:02.121Z,96743.16
2023-02-27T05:42:35.110Z,96752.41
2023-02-27T05:45:08.341Z,96754.13
2023-02-27T05:47:39.141Z,96740.03
2023-02-27T05:50:10.081Z,96755.75
2023-02-27T05:52:39.155Z,96747.41
2023-02-27T05:55:11.763Z,96751.56
2023-02-27T05:57:43.890Z,96757.31
2023-02-27T06:00:17.382Z,96763.16
2023-02-27T06:02:46.137Z,96766.47
2023-02-27T06:05:15.652Z,96767.94
2023-02-27T06:07:43.623Z,96777.16
2023-02-27T06:10:13.978Z,96763.84
2023-02-27T06:12:43.452Z,96767.09
2023-02-27T06:15:12.339Z,96772.91
2023-02-27T06:17:40.428Z,96778.72
2023-02-27T06:20:10.198Z,96772.84
2023-02-27T06:22:38.355Z,96787.84
2023-02-27T06:25:07.119Z,96791.00
2023-02-27T06:27:35.217Z,96782.63
2023-02-27T06:30:07.362Z,96776.72
2023-02-27T06:32:35.350Z,96779.09
2023-02-27T06:35:03.342Z,96792.31
2023-02-27T06:37:31.251Z,96802.25
2023-02-27T06:39:59.235Z,96800.25
2023-02-27T06:42:27.189Z,96803.53
2023-02-27T06:44:56.000Z,96806.66
2023-02-27T06:47:25.534Z,96805.22
2023-02-27T06:49:53.515Z,96803.59
2023-02-27T06:52:21.519Z,96807.56
2023-02-27T06:54:49.456Z,96803.47
2023-02-27T06:57:17.508Z,96813.66
2023-02-27T06:59:45.724Z,96816.34
2023-02-27T07:02:14.752Z,96812.97
2023-02-27T07:04:44.552Z,96822.31
2023-02-27T07:07:34.079Z,96817.09
2023-02-27T07:10:00.807Z,96814.53
2023-02-27T07:12:28.804Z,96819.41
2023-02-27T07:14:56.756Z,96824.25
2023-02-27T07:17:24.832Z,96830.84
2023-02-27T07:19:54.646Z,96832.28
2023-02-27T07:22:22.717Z,96840.75
2023-02-27T07:24:50.774Z,96849.03
2023-02-27T07:27:18.729Z,96844.94
2023-02-27T07:29:46.709Z,96845.94
2023-02-27T07:32:14.664Z,96847.56
2023-02-27T07:34:42.676Z,96850.84
2023-02-27T07:37:12.326Z,96855.06
2023-02-27T07:39:40.503Z,96851.72
2023-02-27T07:42:08.521Z,96857.47
2023-02-27T07:44:36.470Z,96855.72
2023-02-27T07:47:04.828Z,96868.25
2023-02-27T07:49:32.797Z,96861.56
2023-02-27T07:52:00.722Z,96869.00
2023-02-27T07:54:30.094Z,96864.94
2023-02-27T07:56:58.028Z,96871.59
2023-02-27T07:59:26.133Z,96865.59
2023-02-27T08:01:54.116Z,96862.00
2023-02-27T08:04:22.248Z,96870.84
2023-02-27T08:06:50.170Z,96870.13
2023-02-27T08:09:18.306Z,96876.41
2023-02-27T08:11:49.104Z,96870.59
2023-02-27T08:14:17.459Z,96871.03
2023-02-27T08:16:45.499Z,96882.47
2023-02-27T08:19:13.965Z,96885.50
2023-02-27T08:21:42.076Z,96880.94
2023-02-27T08:24:10.867Z,96881.00
2023-02-27T08:26:38.833Z,96889.03
2023-02-27T08:29:08.128Z,96884.44
2023-02-27T08:31:36.330Z,96882.16
2023-02-27T08:34:10.197Z,96881.94
2023-02-27T08:36:39.007Z,96887.34
2023-02-27T08:39:07.123Z,96889.09
2023-02-27T08:41:35.481Z,96881.53
2023-02-27T08:44:03.656Z,96877.59
2023-02-27T08:46:33.063Z,96877.38
2023-02-27T08:49:01.017Z,96888.28
2023-02-27T08:51:29.240Z,96884.94
2023-02-27T08:53:59.103Z,96900.63
2023-02-27T08:56:27.561Z,96892.97
2023-02-27T08:58:56.286Z,96890.25
2023-02-27T09:01:27.269Z,96890.75
2023-02-27T09:03:56.811Z,96880.78
2023-02-27T09:06:26.338Z,96881.59
2023-02-27T09:08:54.617Z,96899.78
2023-02-27T09:11:22.858Z,96897.28
2023-02-27T09:13:51.475Z,96874.84
2023-02-27T09:16:19.657Z,96890.06
2023-02-27T09:18:47.702Z,96917.41
2023-02-27T09:21:17.453Z,96909.97
2023-02-27T09:23:45.510Z,96919.56
2023-02-27T09:26:13.715Z,96910.13
2023-02-27T09:28:41.654Z,96919.38
2023-02-27T09:31:10.107Z,96919.22
2023-02-27T09:33:39.044Z,96926.34
2023-02-27T09:36:07.754Z,96907.84
2023-02-27T09:38:38.846Z,96910.84
2023-02-27T09:41:09.095Z,96910.19
2023-02-27T09:43:41.832Z,96913.06
2023-02-27T09:46:12.632Z,96914.50
2023-02-27T09:48:45.694Z,96908.09
2023-02-27T09:51:16.136Z,96914.34
2023-02-27T09:53:47.799Z,96916.44
2023-02-27T09:56:18.697Z,96924.72
2023-02-27T09:58:50.437Z,96919.59
2023-02-27T10:01:22.009Z,96911.56
2023-02-27T10:04:11.111Z,96926.50
2023-02-27T10:06:44.075Z,96923.41
2023-02-27T10:09:35.587Z,96940.63
2023-02-27T10:12:28.069Z,96939.97
2023-02-27T10:14:58.872Z,96934.34
2023-02-27T10:17:30.528Z,96945.09
2023-02-27T10:20:00.775Z,96945.38
2023-02-27T10:22:31.899Z,96937.44
2023-02-27T10:25:06.281Z,96935.94
2023-02-27T10:27:36.944Z,96944.63
2023-02-27T10:30:28.513Z,96935.63
2023-02-27T10:33:05.047Z,96938.25
2023-02-27T10:35:35.632Z,96935.84
2023-02-27T10:38:06.167Z,96931.69
2023-02-27T10:40:37.260Z,96934.78
2023-02-27T10:43:07.216Z,96939.28
2023-02-27T10:45:37.035Z,96933.56
2023-02-27T10:48:07.023Z,96935.66
2023-02-27T10:50:37.353Z,96934.94
2023-02-27T10:53:08.536Z,96937.34
2023-02-27T10:55:39.891Z,96945.34
2023-02-27T10:58:08.666Z,96940.81
2023-02-27T11:00:44.269Z,96923.75
2023-02-27T11:03:20.358Z,96931.34
2023-02-27T11:05:55.425Z,96924.47
2023-02-27T11:08:24.617Z,96920.47
2023-02-27T11:10:59.782Z,96918.28
2023-02-27T11:13:29.992Z,96911.41
2023-02-27T11:16:08.688Z,96913.50
2023-02-27T11:18:38.383Z,96909.97
2023-02-27T11:21:28.643Z,96906.28
2023-02-27T11:23:59.283Z,96902.16
2023-02-27T11:26:33.079Z,96897.63
2023-02-27T11:29:16.904Z,96893.16
2023-02-27T11:31:52.230Z,96892.94
2023-02-27T11:34:24.251Z,96897.97
2023-02-27T11:36:56.062Z,96894.78
2023-02-27T11:39:27.833Z,96893.59
2023-02-27T11:42:00.490Z,96893.50
2023-02-27T11:44:50.022Z,96891.97
2023-02-27T11:47:21.999Z,96896.75
2023-02-27T11:50:13.554Z,96889.59
2023-02-27T11:52:47.783Z,96891.88
2023-02-27T11:55:18.166Z,96885.94
2023-02-27T11:57:48.935Z,96886.38
2023-02-27T12:00:19.852Z,96882.50
2023-02-27T12:02:55.263Z,96883.63
2023-02-27T12:05:26.560Z,96882.47
2023-02-27T12:08:06.149Z,96873.88
2023-02-27T12:10:43.042Z,96879.19
2023-02-27T12:13:16.704Z,96878.13
2023-02-27T12:15:46.855Z,96885.06
2023-02-27T12:18:18.490Z,96891.22
2023-02-27T12:20:51.841Z,96887.84
2023-02-27T12:23:25.604Z,96881.03
2023-02-27T12:25:57.094Z,96886.22
2023-02-27T12:28:34.379Z,96890.09
2023-02-27T12:31:09.213Z,96882.53
2023-02-27T12:33:41.892Z,96884.47
2023-02-27T12:36:13.858Z,96877.66
2023-02-27T12:38:41.827Z,96881.84
2023-02-27T12:41:43.979Z,96890.50
2023-02-27T12:44:24.350Z,96886.53
2023-02-27T12:46:59.732Z,96879.66
2023-02-27T12:49:36.920Z,96879.13
2023-02-27T12:52:14.073Z,96880.97
2023-02-27T12:54:50.853Z,96887.84
2023-02-27T12:57:31.272Z,96880.69
2023-02-27T13:00:12.017Z,96886.63
2023-02-27T13:02:53.890Z,96881.81
2023-02-27T13:05:29.651Z,96883.19
2023-02-27T13:08:03.737Z,96879.28
2023-02-27T13:10:36.100Z,96863.94
2023-02-27T13:13:09.674Z,96884.91
2023-02-27T13:15:41.813Z,96879.09
2023-02-27T13:18:21.516Z,96891.66
2023-02-27T13:20:52.552Z,96895.50
2023-02-27T13:23:25.026Z,96891.50
2023-02-27T13:25:54.037Z,96886.38
2023-02-27T13:28:25.699Z,96900.09
2023-02-27T13:31:08.257Z,96890.31
2023-02-27T13:33:39.644Z,96887.38
2023-02-27T13:36:13.378Z,96893.44
2023-02-27T13:38:46.489Z,96891.75
2023-02-27T13:41:39.501Z,96890.00
2023-02-27T13:44:50.475Z,96885.09
2023-02-27T13:47:50.154Z,96886.53
2023-02-27T13:50:50.322Z,96885.78
2023-02-27T13:53:22.556Z,96876.63
2023-02-27T13:55:50.943Z,96884.69
2023-02-27T13:58:21.837Z,96878.00
2023-02-27T14:00:59.948Z,96875.41
2023-02-27T14:03:30.566Z,96874.81
2023-02-27T14:06:03.723Z,96871.50
2023-02-27T14:08:35.874Z,96877.19
2023-02-27T14:11:19.376Z,96878.44
2023-02-27T14:14:05.718Z,96876.28
2023-02-27T14:16:59.582Z,96875.94
2023-02-27T14:19:45.411Z,96881.00
2023-02-27T14:23:01.526Z,96891.97
2023-02-27T14:25:33.086Z,96890.22
2023-02-27T14:28:02.286Z,96889.53
2023-02-27T14:30:37.060Z,96876.28
2023-02-27T14:33:16.756Z,96882.97
2023-02-27T14:35:56.855Z,96886.31
2023-02-27T14:38:25.179Z,96885.41
2023-02-27T14:41:01.712Z,96890.44
2023-02-27T14:43:37.068Z,96886.19
2023-02-27T14:46:21.126Z,96888.41
2023-02-27T14:48:54.387Z,96885.28
2023-02-27T14:51:24.785Z,96886.34
2023-02-27T14:54:13.989Z,96894.81
2023-02-27T14:56:42.161Z,96901.44
2023-02-27T14:59:23.001Z,96902.34
2023-02-27T15:01:51.339Z,96908.25
2023-02-27T15:04:20.433Z,96913.25
2023-02-27T15:06:51.906Z,96913.38
2023-02-27T15:09:24.148Z,96920.00
2023-02-27T15:12:03.104Z,96916.75
2023-02-27T15:14:33.531Z,96919.41
2023-02-27T15:17:01.664Z,96922.66
2023-02-27T15:19:31.283Z,96917.69
2023-02-27T15:22:05.065Z,96921.69
2023-02-27T15:24:47.887Z,96925.09
2023-02-27T15:27:19.649Z,96925.88
2023-02-27T15:29:51.220Z,96925.81
2023-02-27T15:32:25.878Z,96930.00
2023-02-27T15:34:53.987Z,96932.63
2023-02-27T15:37:26.165Z,96933.28
2023-02-27T15:39:55.030Z,96932.53
2023-02-27T15:42:26.452Z,96935.78
2023-02-27T15:44:54.764Z,96942.44
2023-02-27T15:47:25.855Z,96945.06
2023-02-27T15:49:57.320Z,96944.78
2023-02-27T15:52:27.974Z,96948.44
2023-02-27T15:55:02.026Z,96944.34
2023-02-27T15:57:30.721Z,96936.13
2023-02-27T15:59:59.762Z,96949.59
2023-02-27T16:02:29.413Z,96953.81
2023-02-27T16:04:58.148Z,96946.38
2023-02-27T16:07:29.596Z,96958.94
2023-02-27T16:10:00.297Z,96958.97
2023-02-27T16:12:33.189Z,96972.34
2023-02-27T16:15:24.133Z,96969.91
2023-02-27T16:17:56.800Z,96974.88
2023-02-27T16:20:45.536Z,96974.88
2023-02-27T16:23:21.466Z,96979.78
2023-02-27T16:26:04.346Z,96977.34
2023-02-27T16:28:33.843Z,96988.19
2023-02-27T16:31:02.555Z,96986.66
2023-02-27T16:33:33.980Z,96996.53
2023-02-27T16:36:15.861Z,97002.44
2023-02-27T16:38:45.169Z,96992.56
2023-02-27T16:41:15.916Z,96999.91
2023-02-27T16:43:44.956Z,96999.16
2023-02-27T16:46:15.778Z,96999.19
2023-02-27T16:48:43.947Z,97001.72
2023-02-27T16:51:17.636Z,97011.72
2023-02-27T16:53:48.134Z,97004.28
2023-02-27T16:56:18.153Z,97008.47
2023-02-27T16:58:48.056Z,97004.28
2023-02-27T17:01:16.298Z,97000.84
2023-02-27T17:03:45.888Z,97021.69
2023-02-27T17:06:14.881Z,97017.56
2023-02-27T17:08:44.009Z,97007.78
2023-02-27T17:11:13.408Z,97011.97
2023-02-27T17:13:41.396Z,97019.38
2023-02-27T17:16:09.568Z,97022.03
2023-02-27T17:18:38.144Z,97005.41
2023-02-27T17:21:06.271Z,97026.06
2023-02-27T17:23:35.315Z,97034.53
2023-02-27T17:26:03.267Z,97032.88
2023-02-27T17:28:32.894Z,97034.41
2023-02-27T17:31:02.666Z,97037.94
2023-02-27T17:33:32.366Z,97033.63
2023-02-27T17:36:03.856Z,97040.47
2023-02-27T17:38:31.878Z,97036.84
2023-02-27T17:40:59.791Z,97041.03
2023-02-27T17:43:28.226Z,97043.66
2023-02-27T17:45:57.828Z,97056.16
2023-02-27T17:48:25.839Z,97052.09
2023-02-27T17:50:53.850Z,97056.25
2023-02-27T17:53:21.751Z,97059.59
2023-02-27T17:55:49.685Z,97060.47
2023-02-27T17:58:18.789Z,97057.81
2023-02-27T18:00:46.751Z,97061.97
2023-02-27T18:03:16.731Z,97060.50
2023-02-27T18:05:49.373Z,97067.19
2023-02-27T18:08:17.309Z,97065.34
2023-02-27T18:10:48.809Z,97065.28
2023-02-27T18:13:17.693Z,97068.72
2023-02-27T18:15:45.934Z,97072.84
2023-02-27T18:18:15.619Z,97069.19
2023-02-27T18:20:43.612Z,97071.88
2023-02-27T18:23:11.768Z,97075.25
2023-02-27T18:25:39.991Z,97076.25
2023-02-27T18:28:08.974Z,97077.59
2023-02-27T18:30:38.899Z,97081.22
2023-02-27T18:33:06.828Z,97074.59
2023-02-27T18:35:36.282Z,97083.09
2023-02-27T18:38:04.242Z,97080.59
2023-02-27T18:40:32.217Z,97084.00
2023-02-27T18:43:00.128Z,97083.22
2023-02-27T18:45:29.606Z,97083.22
2023-02-27T18:47:57.867Z,97083.25
2023-02-27T18:50:26.384Z,97088.31
2023-02-27T18:52:56.394Z,97079.16
2023-02-27T18:55:24.320Z,97085.81
2023-02-27T18:57:52.243Z,97100.91
2023-02-27T19:00:21.699Z,97088.34
2023-02-27T19:02:51.053Z,97098.41
2023-02-27T19:05:19.298Z,97100.09
2023-02-27T19:07:47.466Z,97091.78
2023-02-27T19:10:17.022Z,97098.34
2023-02-27T19:12:44.999Z,97100.84
2023-02-27T19:15:13.151Z,97105.94
2023-02-27T19:17:41.022Z,97109.25
2023-02-27T19:20:14.382Z,97103.44
2023-02-27T19:22:42.341Z,97112.56
2023-02-27T19:25:10.510Z,97113.38
2023-02-27T19:27:40.548Z,97119.28
2023-02-27T19:30:10.590Z,97117.66
2023-02-27T19:32:38.506Z,97125.16
2023-02-27T19:35:07.424Z,97116.03
2023-02-27T19:37:35.319Z,97121.00
2023-02-27T19:40:04.053Z,97120.09
2023-02-27T19:42:31.990Z,97117.66
2023-02-27T19:45:01.301Z,97117.56
2023-02-27T19:47:29.197Z,97120.13
2023-02-27T19:49:57.170Z,97122.69
2023-02-27T19:52:25.142Z,97111.03
2023-02-27T19:54:53.069Z,97117.69
2023-02-27T19:57:22.062Z,97124.31
2023-02-27T19:59:50.129Z,97117.66
2023-02-27T20:02:19.390Z,97126.00
2023-02-27T20:04:47.329Z,97127.56
2023-02-27T20:07:18.954Z,97115.16
2023-02-27T20:09:46.902Z,97121.06
2023-02-27T20:12:14.859Z,97125.25
2023-02-27T20:14:42.768Z,97125.97
2023-02-27T20:17:11.131Z,97122.66
2023-02-27T20:19:40.453Z,97127.72
2023-02-27T20:22:08.354Z,97114.47
2023-02-27T20:24:36.335Z,97127.81
2023-02-27T20:27:04.265Z,97126.97
2023-02-27T20:29:32.155Z,97135.38
2023-02-27T20:32:00.437Z,97128.63
2023-02-27T20:34:28.605Z,97128.63
2023-02-27T20:36:58.275Z,97126.19
2023-02-27T20:39:27.953Z,97124.50
2023-02-27T20:41:55.968Z,97127.84
2023-02-27T20:44:23.916Z,97129.47
2023-02-27T20:46:51.855Z,97131.22
2023-02-27T20:49:19.775Z,97130.38
2023-02-27T20:51:47.887Z,97116.25
2023-02-27T20:54:20.501Z,97123.69
2023-02-27T20:56:51.901Z,97118.75
2023-02-27T20:59:21.441Z,97122.88
2023-02-27T21:01:52.384Z,97123.69
2023-02-27T21:04:21.867Z,97129.56
2023-02-27T21:06:49.929Z,97132.06
2023-02-27T21:09:19.677Z,97131.22
2023-02-27T21:11:47.648Z,97132.03
2023-02-27T21:14:15.603Z,97115.31
2023-02-27T21:16:43.570Z,97122.84
2023-02-27T21:19:11.491Z,97122.88
2023-02-27T21:21:39.425Z,97112.09
2023-02-27T21:24:08.064Z,97122.09
2023-02-27T21:26:38.962Z,97126.25
2023-02-27T21:29:09.013Z,97116.28
2023-02-27T21:31:38.540Z,97122.16
2023-02-27T21:34:08.159Z,97120.50
2023-02-27T21:36:38.277Z,97128.00
2023-02-27T21:39:08.376Z,97118.78
2023-02-27T21:41:38.316Z,97131.34
2023-02-27T21:44:08.236Z,97134.69
2023-02-27T21:46:36.349Z,97126.31
2023-02-27T21:49:04.963Z,97122.13
2023-02-27T21:51:40.561Z,97129.59
2023-02-27T21:54:11.160Z,97129.56
2023-02-27T21:56:41.174Z,97131.31
2023-02-27T21:59:09.373Z,97131.31
2023-02-27T22:01:37.987Z,97118.00
2023-02-27T22:04:06.657Z,97133.78
2023-02-27T22:06:35.709Z,97129.63
2023-02-27T22:09:05.523Z,97122.16
2023-02-27T22:11:35.275Z,97126.31
2023-02-27T22:14:05.559Z,97123.78
2023-02-27T22:16:33.520Z,97126.31
2023-02-27T22:19:06.073Z,97117.13
2023-02-27T22:21:34.012Z,97124.63
2023-02-27T22:24:01.964Z,97122.94
2023-02-27T22:26:30.845Z,97111.31
2023-02-27T22:29:00.147Z,97112.09
2023-02-27T22:31:31.435Z,97115.47
2023-02-27T22:34:01.763Z,97109.66
2023-02-27T22:36:31.061Z,97106.34
2023-02-27T22:38:59.469Z,97106.38
2023-02-27T22:41:29.097Z,97108.88
2023-02-27T22:43:57.361Z,97107.13
2023-02-27T22:46:28.189Z,97113.00
2023-02-27T22:48:58.485Z,97113.03
2023-02-27T22:51:28.481Z,97113.84
2023-02-27T22:53:57.650Z,97116.38
2023-02-27T22:56:25.820Z,97112.19
2023-02-27T22:58:54.298Z,97117.22
2023-02-27T23:01:23.716Z,97116.38
2023-02-27T23:03:53.198Z,97111.38
2023-02-27T23:06:23.949Z,97110.56
2023-02-27T23:08:52.030Z,97115.56
2023-02-27T23:11:20.973Z,97106.41
2023-02-27T23:13:49.103Z,97109.75
2023-02-27T23:16:17.580Z,97115.56
2023-02-27T23:18:47.199Z,97116.34
2023-02-27T23:21:15.944Z,97112.22
2023-02-27T23:23:45.814Z,97109.75
2023-02-27T23:26:14.108Z,97113.13
2023-02-27T23:28:42.136Z,97114.81
2023-02-27T23:31:10.346Z,97123.16
2023-02-27T23:33:38.531Z,97113.97
2023-02-27T23:36:07.201Z,97108.13
2023-02-27T23:38:35.186Z,97097.31
2023-02-27T23:41:08.222Z,97114.84
2023-02-27T23:43:36.556Z,97116.53
2023-02-27T23:46:08.302Z,97119.88
2023-02-27T23:48:36.799Z,97119.06
2023-02-27T23:51:06.021Z,97095.72
2023-02-27T23:53:34.666Z,97100.69
2023-02-27T23:56:03.532Z,97115.66
2023-02-27T23:58:32.829Z,97101.56
